LYBE/BEG METAR and TAF weather

Enter ICAO airport designator
Station Type Date Time Source
LYBE METAR 2018/06/22 11:00 UTC NOAA

LYBE 221100Z 34015KT 310V010 9999 SCT040 24/18 Q1013 NOSIG


Station Type Date Time Source
LYBE Decoded METAR 2018/06/22 11:00 UTC NOAA

Beograd / Surcin, Serbia and Montenegro (LYBE) 44-49N 020-17E 99M
Jun 22, 2018 - 07:00 AM EDT / 2018.06.22 1100 UTC
Wind: from the NNW (340 degrees) at 17 MPH (15 KT) (direction variable):0
Visibility: greater than 7 mile(s):0
Sky conditions: partly cloudy
Temperature: 75 F (24 C)
Dew Point: 64 F (18 C)
Relative Humidity: 69%
Pressure (altimeter): 29.91 in. Hg (1013 hPa)
ob: LYBE 221100Z 34015KT 310V010 9999 SCT040 24/18 Q1013 NOSIG
cycle: 11

Station Type Date Time Source
LYBE TAF 2018/06/22 12:21 UTC NOAA

TAF LYBE 221100Z 2212/2312 33012KT 9999 SCT033 TX23/2212Z TN10/2303Z
TEMPO 2212/2217 33022KT
TEMPO 2216/2222 5000 -RA BKN015 BKN030


Example: see airport list